createdAt,value
2024-04-13T00:00:21.000Z,5.759335288367565
2024-04-13T00:01:23.000Z,5.788514173998063
2024-04-13T00:02:25.000Z,5.788514173998063
2024-04-13T00:03:28.000Z,5.788514173998063
2024-04-13T00:04:30.000Z,5.798240469208229
2024-04-13T00:05:32.000Z,5.778787878787897
2024-04-13T00:06:34.000Z,5.788514173998063
2024-04-13T00:07:37.000Z,5.7204301075269
2024-04-13T00:08:39.000Z,5.788514173998063
2024-04-13T00:09:41.000Z,5.798240469208229
2024-04-13T00:10:44.000Z,5.730156402737066
2024-04-13T00:11:46.000Z,5.739882697947232
2024-04-13T00:12:48.000Z,5.778787878787897
2024-04-13T00:13:50.000Z,5.788514173998063
2024-04-13T00:14:53.000Z,5.788514173998063
2024-04-13T00:15:55.000Z,5.798240469208229
2024-04-13T00:16:57.000Z,5.769061583577731
2024-04-13T00:18:00.000Z,5.769061583577731
2024-04-13T00:19:02.000Z,5.730156402737066
2024-04-13T00:20:04.000Z,5.778787878787897
2024-04-13T00:21:07.000Z,5.749608993157398
2024-04-13T00:22:09.000Z,5.778787878787897
2024-04-13T00:23:11.000Z,5.759335288367565
2024-04-13T00:24:13.000Z,5.788514173998063
2024-04-13T00:25:16.000Z,5.7107038123167335
2024-04-13T00:26:18.000Z,5.7204301075269
2024-04-13T00:27:20.000Z,5.778787878787897
2024-04-13T00:28:22.000Z,5.778787878787897
2024-04-13T00:29:25.000Z,5.778787878787897
2024-04-13T00:30:27.000Z,5.769061583577731
2024-04-13T00:31:29.000Z,5.778787878787897
2024-04-13T00:32:31.000Z,5.778787878787897
2024-04-13T00:33:34.000Z,5.7204301075269
2024-04-13T00:34:36.000Z,5.739882697947232
2024-04-13T00:35:38.000Z,5.778787878787897
2024-04-13T00:36:41.000Z,5.778787878787897
2024-04-13T00:37:43.000Z,5.769061583577731
2024-04-13T00:38:45.000Z,5.778787878787897
2024-04-13T00:39:48.000Z,5.778787878787897
2024-04-13T00:40:50.000Z,5.788514173998063
2024-04-13T00:41:52.000Z,5.788514173998063
2024-04-13T00:42:55.000Z,5.7204301075269
2024-04-13T00:43:57.000Z,5.730156402737066
2024-04-13T00:44:59.000Z,5.798240469208229
2024-04-13T00:46:02.000Z,5.778787878787897
2024-04-13T00:47:04.000Z,5.788514173998063
2024-04-13T00:48:06.000Z,5.788514173998063
2024-04-13T00:49:08.000Z,5.769061583577731
2024-04-13T00:50:11.000Z,5.7204301075269
2024-04-13T00:51:13.000Z,5.749608993157398
2024-04-13T00:52:15.000Z,5.778787878787897
2024-04-13T00:53:17.000Z,5.788514173998063
2024-04-13T00:54:20.000Z,5.788514173998063
2024-04-13T00:55:22.000Z,5.778787878787897
2024-04-13T00:56:24.000Z,5.788514173998063
2024-04-13T00:57:27.000Z,5.778787878787897
2024-04-13T00:58:29.000Z,5.730156402737066
2024-04-13T00:59:31.000Z,5.778787878787897
2024-04-13T01:00:33.000Z,5.7107038123167335
2024-04-13T01:01:36.000Z,5.788514173998063
2024-04-13T01:02:38.000Z,5.798240469208229
2024-04-13T01:03:40.000Z,5.778787878787897
2024-04-13T01:04:43.000Z,5.798240469208229
2024-04-13T01:05:45.000Z,5.778787878787897
2024-04-13T01:06:47.000Z,5.778787878787897
2024-04-13T01:07:49.000Z,5.739882697947232
2024-04-13T01:08:52.000Z,5.769061583577731
2024-04-13T01:09:54.000Z,5.778787878787897
2024-04-13T01:10:56.000Z,5.807966764418396
2024-04-13T01:11:58.000Z,5.788514173998063
2024-04-13T01:13:01.000Z,5.798240469208229
2024-04-13T01:14:04.000Z,5.769061583577731
2024-04-13T01:15:06.000Z,5.759335288367565
2024-04-13T01:16:08.000Z,5.749608993157398
2024-04-13T01:17:10.000Z,5.769061583577731
2024-04-13T01:18:13.000Z,5.7204301075269
2024-04-13T01:19:15.000Z,5.769061583577731
2024-04-13T01:20:17.000Z,5.788514173998063
2024-04-13T01:21:19.000Z,5.730156402737066
2024-04-13T01:22:22.000Z,5.778787878787897
2024-04-13T01:23:24.000Z,5.778787878787897
2024-04-13T01:24:26.000Z,5.788514173998063
2024-04-13T01:25:29.000Z,5.788514173998063
2024-04-13T01:26:31.000Z,5.788514173998063
2024-04-13T01:27:33.000Z,5.788514173998063
2024-04-13T01:28:36.000Z,5.769061583577731
2024-04-13T01:29:38.000Z,5.652346041055736
2024-04-13T01:30:40.000Z,5.769061583577731
2024-04-13T01:31:42.000Z,5.778787878787897
2024-04-13T01:32:45.000Z,5.788514173998063
2024-04-13T01:33:47.000Z,5.778787878787897
2024-04-13T01:34:49.000Z,5.788514173998063
2024-04-13T01:35:52.000Z,5.7204301075269
2024-04-13T01:36:54.000Z,5.798240469208229
2024-04-13T01:37:56.000Z,5.7107038123167335
2024-04-13T01:38:58.000Z,5.778787878787897
2024-04-13T01:40:01.000Z,5.778787878787897
2024-04-13T01:41:03.000Z,5.788514173998063
2024-04-13T01:42:05.000Z,5.769061583577731
2024-04-13T01:43:08.000Z,5.739882697947232
2024-04-13T01:44:10.000Z,5.700977517106567
2024-04-13T01:45:12.000Z,5.759335288367565
2024-04-13T01:46:14.000Z,5.788514173998063
2024-04-13T01:47:17.000Z,5.7204301075269
2024-04-13T01:48:19.000Z,5.788514173998063
2024-04-13T01:49:22.000Z,5.778787878787897
2024-04-13T01:50:24.000Z,5.778787878787897
2024-04-13T01:51:26.000Z,5.7204301075269
2024-04-13T01:52:28.000Z,5.778787878787897
2024-04-13T01:53:31.000Z,5.7107038123167335
2024-04-13T01:54:33.000Z,5.788514173998063
2024-04-13T01:55:35.000Z,5.778787878787897
2024-04-13T01:56:38.000Z,5.778787878787897
2024-04-13T01:57:40.000Z,5.769061583577731
2024-04-13T01:58:42.000Z,5.788514173998063
2024-04-13T01:59:45.000Z,5.769061583577731
2024-04-13T02:00:47.000Z,5.749608993157398
2024-04-13T02:01:49.000Z,5.778787878787897
2024-04-13T02:02:52.000Z,5.769061583577731
2024-04-13T02:03:54.000Z,5.778787878787897
2024-04-13T02:04:56.000Z,5.788514173998063
2024-04-13T02:05:59.000Z,5.788514173998063
2024-04-13T02:07:01.000Z,5.778787878787897
2024-04-13T02:08:04.000Z,5.769061583577731
2024-04-13T02:09:06.000Z,5.788514173998063
2024-04-13T02:10:08.000Z,5.7204301075269
2024-04-13T02:11:10.000Z,5.7204301075269
2024-04-13T02:12:13.000Z,5.798240469208229
2024-04-13T02:13:15.000Z,5.769061583577731
2024-04-13T02:14:17.000Z,5.778787878787897
2024-04-13T02:15:19.000Z,5.788514173998063
2024-04-13T02:16:22.000Z,5.788514173998063
2024-04-13T02:17:24.000Z,5.769061583577731
2024-04-13T02:18:27.000Z,5.769061583577731
2024-04-13T02:19:29.000Z,5.7204301075269
2024-04-13T02:20:31.000Z,5.788514173998063
2024-04-13T02:21:33.000Z,5.798240469208229
2024-04-13T02:22:36.000Z,5.7204301075269
2024-04-13T02:23:38.000Z,5.788514173998063
2024-04-13T02:24:41.000Z,5.788514173998063
2024-04-13T02:25:43.000Z,5.788514173998063
2024-04-13T02:26:45.000Z,5.807966764418396
2024-04-13T02:27:47.000Z,5.730156402737066
2024-04-13T02:28:50.000Z,5.749608993157398
2024-04-13T02:29:52.000Z,5.788514173998063
2024-04-13T02:30:54.000Z,5.798240469208229
2024-04-13T02:31:57.000Z,5.788514173998063
2024-04-13T02:32:59.000Z,5.798240469208229
2024-04-13T02:34:01.000Z,5.788514173998063
2024-04-13T02:35:04.000Z,5.798240469208229
2024-04-13T02:36:06.000Z,5.798240469208229
2024-04-13T02:37:08.000Z,5.759335288367565
2024-04-13T02:38:11.000Z,5.730156402737066
2024-04-13T02:39:13.000Z,5.7107038123167335
2024-04-13T02:40:15.000Z,5.778787878787897
2024-04-13T02:41:18.000Z,5.749608993157398
2024-04-13T02:42:20.000Z,5.788514173998063
2024-04-13T02:43:22.000Z,5.788514173998063
2024-04-13T02:44:25.000Z,5.788514173998063
2024-04-13T02:45:27.000Z,5.749608993157398
2024-04-13T02:46:29.000Z,5.739882697947232
2024-04-13T02:47:32.000Z,5.778787878787897
2024-04-13T02:48:34.000Z,5.778787878787897
2024-04-13T02:49:36.000Z,5.730156402737066
2024-04-13T02:50:39.000Z,5.778787878787897
2024-04-13T02:51:41.000Z,5.807966764418396
2024-04-13T02:52:43.000Z,5.739882697947232
2024-04-13T02:53:46.000Z,5.798240469208229
2024-04-13T02:54:48.000Z,5.788514173998063
2024-04-13T02:55:50.000Z,5.788514173998063
2024-04-13T02:56:52.000Z,5.7204301075269
2024-04-13T02:57:55.000Z,5.778787878787897
2024-04-13T02:58:57.000Z,5.778787878787897
2024-04-13T02:59:59.000Z,5.778787878787897
2024-04-13T03:01:02.000Z,5.788514173998063
2024-04-13T03:02:04.000Z,5.769061583577731
2024-04-13T03:03:06.000Z,5.778787878787897
2024-04-13T03:04:09.000Z,5.652346041055736
2024-04-13T03:05:11.000Z,5.749608993157398
2024-04-13T03:06:13.000Z,5.778787878787897
2024-04-13T03:07:15.000Z,5.749608993157398
2024-04-13T03:08:18.000Z,5.778787878787897
2024-04-13T03:09:20.000Z,5.778787878787897
2024-04-13T03:10:22.000Z,5.778787878787897
2024-04-13T03:11:25.000Z,5.769061583577731
2024-04-13T03:12:27.000Z,5.778787878787897
2024-04-13T03:13:29.000Z,5.778787878787897
2024-04-13T03:14:32.000Z,5.769061583577731
2024-04-13T03:15:34.000Z,5.6620723362659025
2024-04-13T03:16:36.000Z,5.769061583577731
2024-04-13T03:17:38.000Z,5.769061583577731
2024-04-13T03:18:41.000Z,5.778787878787897
2024-04-13T03:19:43.000Z,5.778787878787897
2024-04-13T03:20:45.000Z,5.769061583577731
2024-04-13T03:21:47.000Z,5.788514173998063
2024-04-13T03:22:50.000Z,5.769061583577731
2024-04-13T03:23:52.000Z,5.778787878787897
2024-04-13T03:24:54.000Z,5.778787878787897
2024-04-13T03:25:57.000Z,5.778787878787897
2024-04-13T03:26:59.000Z,5.730156402737066
2024-04-13T03:28:01.000Z,5.7204301075269
2024-04-13T03:29:04.000Z,5.7204301075269
2024-04-13T03:30:06.000Z,5.769061583577731
2024-04-13T03:31:08.000Z,5.769061583577731
2024-04-13T03:32:10.000Z,5.778787878787897
2024-04-13T03:33:13.000Z,5.700977517106567
2024-04-13T03:34:15.000Z,5.788514173998063
2024-04-13T03:35:17.000Z,5.739882697947232
2024-04-13T03:36:20.000Z,5.788514173998063
2024-04-13T03:37:22.000Z,5.730156402737066
2024-04-13T03:38:24.000Z,5.7204301075269
2024-04-13T03:39:26.000Z,5.759335288367565
2024-04-13T03:40:29.000Z,5.769061583577731
2024-04-13T03:41:31.000Z,5.788514173998063
2024-04-13T03:42:33.000Z,5.788514173998063
2024-04-13T03:43:35.000Z,5.759335288367565
2024-04-13T03:44:38.000Z,5.778787878787897
2024-04-13T03:45:40.000Z,5.769061583577731
2024-04-13T03:46:42.000Z,5.788514173998063
2024-04-13T03:47:45.000Z,5.730156402737066
2024-04-13T03:48:47.000Z,5.7204301075269
2024-04-13T03:49:49.000Z,5.769061583577731
2024-04-13T03:50:52.000Z,5.730156402737066
2024-04-13T03:51:54.000Z,5.769061583577731
2024-04-13T03:52:56.000Z,5.778787878787897
2024-04-13T03:53:58.000Z,5.778787878787897
2024-04-13T03:55:01.000Z,5.769061583577731
2024-04-13T03:56:03.000Z,5.730156402737066
2024-04-13T03:57:05.000Z,5.7204301075269
2024-04-13T03:58:08.000Z,5.778787878787897
2024-04-13T03:59:10.000Z,5.769061583577731
2024-04-13T04:00:12.000Z,5.778787878787897
2024-04-13T04:01:14.000Z,5.759335288367565
2024-04-13T04:02:17.000Z,5.691251221896401
2024-04-13T04:03:19.000Z,5.759335288367565
2024-04-13T04:04:22.000Z,5.769061583577731
2024-04-13T04:05:24.000Z,5.730156402737066
2024-04-13T04:06:26.000Z,5.7107038123167335
2024-04-13T04:07:29.000Z,5.759335288367565
2024-04-13T04:08:31.000Z,5.7107038123167335
2024-04-13T04:09:33.000Z,5.769061583577731
2024-04-13T04:10:35.000Z,5.778787878787897
2024-04-13T04:11:38.000Z,5.769061583577731
2024-04-13T04:12:40.000Z,5.778787878787897
2024-04-13T04:13:42.000Z,5.700977517106567
2024-04-13T04:14:45.000Z,5.759335288367565
2024-04-13T04:15:47.000Z,5.7204301075269
2024-04-13T04:16:49.000Z,5.788514173998063
2024-04-13T04:17:51.000Z,5.778787878787897
2024-04-13T04:18:54.000Z,5.807966764418396
2024-04-13T04:19:56.000Z,5.700977517106567
2024-04-13T04:20:58.000Z,5.778787878787897
2024-04-13T04:22:00.000Z,5.769061583577731
2024-04-13T04:23:03.000Z,5.7204301075269
2024-04-13T04:24:05.000Z,5.7204301075269
2024-04-13T04:25:07.000Z,5.778787878787897
2024-04-13T04:26:10.000Z,5.788514173998063
2024-04-13T04:27:12.000Z,5.788514173998063
2024-04-13T04:28:14.000Z,5.778787878787897
2024-04-13T04:29:17.000Z,5.759335288367565
2024-04-13T04:30:19.000Z,5.759335288367565
2024-04-13T04:31:21.000Z,5.64261974584557
2024-04-13T04:32:24.000Z,5.730156402737066
2024-04-13T04:33:26.000Z,5.788514173998063
2024-04-13T04:34:28.000Z,5.788514173998063
2024-04-13T04:35:31.000Z,5.788514173998063
2024-04-13T04:36:33.000Z,5.798240469208229
2024-04-13T04:37:35.000Z,5.798240469208229
2024-04-13T04:38:38.000Z,5.798240469208229
2024-04-13T04:39:40.000Z,5.778787878787897
2024-04-13T04:40:42.000Z,5.739882697947232
2024-04-13T04:41:44.000Z,5.798240469208229
2024-04-13T04:42:47.000Z,5.778787878787897
2024-04-13T04:43:49.000Z,5.798240469208229
2024-04-13T04:44:51.000Z,5.807966764418396
2024-04-13T04:45:54.000Z,5.798240469208229
2024-04-13T04:46:56.000Z,5.817693059628562
2024-04-13T04:47:58.000Z,5.798240469208229
2024-04-13T04:49:01.000Z,5.700977517106567
2024-04-13T04:50:03.000Z,5.807966764418396
2024-04-13T04:51:05.000Z,5.817693059628562
2024-04-13T04:52:07.000Z,5.798240469208229
2024-04-13T04:53:10.000Z,5.8468719452590605
2024-04-13T04:54:12.000Z,5.827419354838728
2024-04-13T04:55:14.000Z,5.778787878787897
2024-04-13T04:56:17.000Z,5.749608993157398
2024-04-13T04:57:19.000Z,5.778787878787897
2024-04-13T04:58:21.000Z,5.837145650048894
2024-04-13T04:59:24.000Z,5.788514173998063
2024-04-13T05:00:26.000Z,5.798240469208229
2024-04-13T05:01:28.000Z,5.817693059628562
2024-04-13T05:02:31.000Z,5.769061583577731
2024-04-13T05:03:33.000Z,5.769061583577731
2024-04-13T05:04:35.000Z,5.827419354838728
2024-04-13T05:05:37.000Z,5.837145650048894
2024-04-13T05:06:40.000Z,5.759335288367565
2024-04-13T05:07:42.000Z,5.837145650048894
2024-04-13T05:08:44.000Z,5.856598240469227
2024-04-13T05:09:46.000Z,5.769061583577731
2024-04-13T05:10:49.000Z,5.788514173998063
2024-04-13T05:11:51.000Z,5.856598240469227
2024-04-13T05:12:53.000Z,5.866324535679393
2024-04-13T05:13:56.000Z,5.876050830889559
2024-04-13T05:14:58.000Z,5.885777126099725
2024-04-13T05:16:00.000Z,5.885777126099725
2024-04-13T05:17:02.000Z,5.876050830889559
2024-04-13T05:18:05.000Z,5.8468719452590605
2024-04-13T05:19:07.000Z,5.895503421309892
2024-04-13T05:20:10.000Z,5.885777126099725
2024-04-13T05:21:12.000Z,5.914956011730224
2024-04-13T05:22:14.000Z,5.914956011730224
2024-04-13T05:23:16.000Z,5.876050830889559
2024-04-13T05:24:19.000Z,5.8468719452590605
2024-04-13T05:25:21.000Z,5.807966764418396
2024-04-13T05:26:23.000Z,5.905229716520058
2024-04-13T05:27:25.000Z,5.876050830889559
2024-04-13T05:28:28.000Z,5.92468230694039
2024-04-13T05:29:30.000Z,5.914956011730224
2024-04-13T05:30:32.000Z,5.914956011730224
2024-04-13T05:31:34.000Z,5.905229716520058
2024-04-13T05:32:37.000Z,5.837145650048894
2024-04-13T05:33:39.000Z,5.895503421309892
2024-04-13T05:34:42.000Z,5.837145650048894
2024-04-13T05:35:44.000Z,5.885777126099725
2024-04-13T05:36:46.000Z,5.914956011730224
2024-04-13T05:37:48.000Z,5.905229716520058
2024-04-13T05:38:51.000Z,5.92468230694039
2024-04-13T05:39:53.000Z,5.92468230694039
2024-04-13T05:40:55.000Z,5.92468230694039
2024-04-13T05:41:58.000Z,5.817693059628562
2024-04-13T05:43:00.000Z,5.914956011730224
2024-04-13T05:44:02.000Z,5.905229716520058
2024-04-13T05:45:04.000Z,5.914956011730224
2024-04-13T05:46:07.000Z,5.914956011730224
2024-04-13T05:47:09.000Z,5.914956011730224
2024-04-13T05:48:11.000Z,5.905229716520058
2024-04-13T05:49:14.000Z,5.914956011730224
2024-04-13T05:50:16.000Z,5.837145650048894
2024-04-13T05:51:18.000Z,5.827419354838728
2024-04-13T05:52:20.000Z,5.866324535679393
2024-04-13T05:53:23.000Z,5.798240469208229
2024-04-13T05:54:25.000Z,5.934408602150556
2024-04-13T05:55:27.000Z,5.934408602150556
2024-04-13T05:56:30.000Z,5.953861192570889
2024-04-13T05:57:32.000Z,5.963587487781055
2024-04-13T05:58:34.000Z,5.992766373411554
2024-04-13T05:59:37.000Z,5.866324535679393
2024-04-13T06:00:39.000Z,5.963587487781055
2024-04-13T06:01:41.000Z,5.885777126099725
2024-04-13T06:02:43.000Z,5.9830400782013875
2024-04-13T06:03:46.000Z,5.973313782991221
2024-04-13T06:04:48.000Z,5.9830400782013875
2024-04-13T06:05:50.000Z,5.9830400782013875
2024-04-13T06:06:53.000Z,5.992766373411554
2024-04-13T06:07:55.000Z,5.992766373411554
2024-04-13T06:08:57.000Z,5.9830400782013875
2024-04-13T06:09:59.000Z,5.895503421309892
2024-04-13T06:11:02.000Z,6.00249266862172
2024-04-13T06:12:04.000Z,6.021945259042052
2024-04-13T06:13:07.000Z,6.031671554252219
2024-04-13T06:14:09.000Z,6.041397849462385
2024-04-13T06:15:11.000Z,6.031671554252219
2024-04-13T06:16:14.000Z,6.031671554252219
2024-04-13T06:17:16.000Z,5.92468230694039
2024-04-13T06:18:18.000Z,6.031671554252219
2024-04-13T06:19:20.000Z,5.963587487781055
2024-04-13T06:20:23.000Z,5.92468230694039
2024-04-13T06:21:25.000Z,5.9830400782013875
2024-04-13T06:22:27.000Z,6.021945259042052
2024-04-13T06:23:29.000Z,6.021945259042052
2024-04-13T06:24:32.000Z,6.031671554252219
2024-04-13T06:25:34.000Z,6.021945259042052
2024-04-13T06:26:36.000Z,6.031671554252219
2024-04-13T06:27:39.000Z,6.012218963831886
2024-04-13T06:28:41.000Z,5.827419354838728
2024-04-13T06:29:43.000Z,6.012218963831886
2024-04-13T06:30:45.000Z,6.012218963831886
2024-04-13T06:31:48.000Z,6.021945259042052
2024-04-13T06:32:50.000Z,6.031671554252219
2024-04-13T06:33:52.000Z,6.021945259042052
2024-04-13T06:34:55.000Z,6.021945259042052
2024-04-13T06:35:57.000Z,6.021945259042052
2024-04-13T06:36:59.000Z,5.914956011730224
2024-04-13T06:38:01.000Z,5.992766373411554
2024-04-13T06:39:04.000Z,6.021945259042052
2024-04-13T06:40:06.000Z,6.012218963831886
2024-04-13T06:41:08.000Z,6.021945259042052
2024-04-13T06:42:11.000Z,6.012218963831886
2024-04-13T06:43:13.000Z,6.012218963831886
2024-04-13T06:44:15.000Z,6.00249266862172
2024-04-13T06:45:17.000Z,6.00249266862172
2024-04-13T06:46:20.000Z,5.807966764418396
2024-04-13T06:47:22.000Z,5.905229716520058
2024-04-13T06:48:24.000Z,5.9830400782013875
2024-04-13T06:49:26.000Z,5.953861192570889
2024-04-13T06:50:29.000Z,6.00249266862172
2024-04-13T06:51:31.000Z,5.992766373411554
2024-04-13T06:52:33.000Z,6.00249266862172
2024-04-13T06:53:36.000Z,5.973313782991221
2024-04-13T06:54:38.000Z,5.992766373411554
2024-04-13T06:55:40.000Z,5.885777126099725
2024-04-13T06:56:43.000Z,5.934408602150556
2024-04-13T06:57:45.000Z,5.9830400782013875
2024-04-13T06:58:47.000Z,5.992766373411554
2024-04-13T06:59:50.000Z,5.9830400782013875
2024-04-13T07:00:52.000Z,5.992766373411554
2024-04-13T07:01:54.000Z,5.973313782991221
2024-04-13T07:02:56.000Z,5.973313782991221
2024-04-13T07:03:59.000Z,5.866324535679393
2024-04-13T07:05:01.000Z,5.885777126099725
2024-04-13T07:06:03.000Z,5.876050830889559
2024-04-13T07:07:06.000Z,5.9830400782013875
2024-04-13T07:08:08.000Z,5.963587487781055
2024-04-13T07:09:10.000Z,5.9830400782013875
2024-04-13T07:10:13.000Z,5.9830400782013875
2024-04-13T07:11:15.000Z,5.9830400782013875
2024-04-13T07:12:17.000Z,5.973313782991221
2024-04-13T07:13:19.000Z,5.9830400782013875
2024-04-13T07:14:22.000Z,5.876050830889559
2024-04-13T07:15:24.000Z,5.856598240469227
2024-04-13T07:16:26.000Z,5.953861192570889
2024-04-13T07:17:29.000Z,5.905229716520058
2024-04-13T07:18:31.000Z,5.9830400782013875
2024-04-13T07:19:33.000Z,5.963587487781055
2024-04-13T07:20:36.000Z,5.973313782991221
2024-04-13T07:21:38.000Z,5.8468719452590605
2024-04-13T07:22:40.000Z,5.876050830889559
2024-04-13T07:23:43.000Z,5.876050830889559
2024-04-13T07:24:45.000Z,5.885777126099725
2024-04-13T07:25:47.000Z,5.944134897360723
2024-04-13T07:26:50.000Z,5.9830400782013875
2024-04-13T07:27:52.000Z,5.953861192570889
2024-04-13T07:28:54.000Z,5.963587487781055
2024-04-13T07:29:57.000Z,5.953861192570889
2024-04-13T07:30:59.000Z,5.973313782991221
2024-04-13T07:32:01.000Z,5.934408602150556
2024-04-13T07:33:03.000Z,5.866324535679393
2024-04-13T07:34:06.000Z,5.8468719452590605
2024-04-13T07:35:08.000Z,5.876050830889559
2024-04-13T07:36:11.000Z,5.944134897360723
2024-04-13T07:37:13.000Z,5.953861192570889
2024-04-13T07:38:15.000Z,5.953861192570889
2024-04-13T07:39:17.000Z,5.856598240469227
2024-04-13T07:40:20.000Z,5.953861192570889
2024-04-13T07:41:22.000Z,5.905229716520058
2024-04-13T07:42:24.000Z,5.934408602150556
2024-04-13T07:43:26.000Z,5.817693059628562
2024-04-13T07:44:29.000Z,5.837145650048894
2024-04-13T07:45:31.000Z,5.866324535679393
2024-04-13T07:46:33.000Z,5.934408602150556
2024-04-13T07:47:36.000Z,5.944134897360723
2024-04-13T07:48:38.000Z,5.944134897360723
2024-04-13T07:49:40.000Z,5.934408602150556
2024-04-13T07:50:43.000Z,5.953861192570889
2024-04-13T07:51:45.000Z,5.934408602150556
2024-04-13T07:52:48.000Z,5.934408602150556
2024-04-13T07:53:50.000Z,5.944134897360723
2024-04-13T07:54:52.000Z,5.944134897360723
2024-04-13T07:55:55.000Z,5.944134897360723
2024-04-13T07:56:57.000Z,5.856598240469227
2024-04-13T07:57:59.000Z,5.934408602150556
2024-04-13T07:59:01.000Z,5.944134897360723
2024-04-13T08:00:04.000Z,5.914956011730224
2024-04-13T08:01:06.000Z,5.905229716520058
2024-04-13T08:02:08.000Z,5.8468719452590605
2024-04-13T08:03:11.000Z,5.914956011730224
2024-04-13T08:04:13.000Z,5.92468230694039
2024-04-13T08:05:15.000Z,5.934408602150556
2024-04-13T08:06:17.000Z,5.934408602150556
2024-04-13T08:07:20.000Z,5.953861192570889
2024-04-13T08:08:22.000Z,5.934408602150556
2024-04-13T08:09:24.000Z,5.905229716520058
2024-04-13T08:10:27.000Z,5.953861192570889
2024-04-13T08:11:29.000Z,5.914956011730224
2024-04-13T08:12:31.000Z,5.92468230694039
2024-04-13T08:13:34.000Z,5.92468230694039
2024-04-13T08:14:36.000Z,5.8468719452590605
2024-04-13T08:15:38.000Z,5.856598240469227
2024-04-13T08:16:40.000Z,5.8468719452590605
2024-04-13T08:17:43.000Z,5.866324535679393
2024-04-13T08:18:45.000Z,5.8468719452590605
2024-04-13T08:19:47.000Z,5.914956011730224
2024-04-13T08:20:50.000Z,5.934408602150556
2024-04-13T08:21:52.000Z,5.92468230694039
2024-04-13T08:22:54.000Z,5.953861192570889
2024-04-13T08:23:57.000Z,5.944134897360723
2024-04-13T08:24:59.000Z,5.944134897360723
2024-04-13T08:26:01.000Z,5.8468719452590605
2024-04-13T08:27:03.000Z,5.953861192570889
2024-04-13T08:28:06.000Z,5.934408602150556
2024-04-13T08:29:08.000Z,5.953861192570889
2024-04-13T08:30:10.000Z,5.856598240469227
2024-04-13T08:31:12.000Z,5.856598240469227
2024-04-13T08:32:15.000Z,5.8468719452590605
2024-04-13T08:33:17.000Z,5.944134897360723
2024-04-13T08:34:19.000Z,5.963587487781055
2024-04-13T08:35:22.000Z,5.973313782991221
2024-04-13T08:36:24.000Z,5.973313782991221
2024-04-13T08:37:26.000Z,5.905229716520058
2024-04-13T08:38:29.000Z,5.944134897360723
2024-04-13T08:39:31.000Z,5.905229716520058
2024-04-13T08:40:33.000Z,5.944134897360723
2024-04-13T08:41:36.000Z,5.953861192570889
2024-04-13T08:42:38.000Z,5.963587487781055
2024-04-13T08:43:40.000Z,5.837145650048894
2024-04-13T08:44:43.000Z,5.953861192570889
2024-04-13T08:45:45.000Z,5.953861192570889
2024-04-13T08:46:47.000Z,5.934408602150556
2024-04-13T08:47:49.000Z,5.934408602150556
2024-04-13T08:48:52.000Z,5.866324535679393
2024-04-13T08:49:54.000Z,5.856598240469227
2024-04-13T08:50:56.000Z,5.885777126099725
2024-04-13T08:51:58.000Z,5.944134897360723
2024-04-13T08:53:01.000Z,5.953861192570889
2024-04-13T08:54:03.000Z,5.944134897360723
2024-04-13T08:55:05.000Z,5.963587487781055
2024-04-13T08:56:07.000Z,5.973313782991221
2024-04-13T08:57:10.000Z,5.963587487781055
2024-04-13T08:58:12.000Z,5.953861192570889
2024-04-13T08:59:14.000Z,5.973313782991221
2024-04-13T09:00:17.000Z,5.963587487781055
2024-04-13T09:01:19.000Z,5.876050830889559
2024-04-13T09:02:21.000Z,5.973313782991221
2024-04-13T09:03:24.000Z,5.963587487781055
2024-04-13T09:04:26.000Z,5.9830400782013875
2024-04-13T09:05:28.000Z,5.914956011730224
2024-04-13T09:06:31.000Z,5.963587487781055
2024-04-13T09:07:33.000Z,5.827419354838728
2024-04-13T09:08:35.000Z,5.895503421309892
2024-04-13T09:09:38.000Z,5.905229716520058
2024-04-13T09:10:40.000Z,5.973313782991221
2024-04-13T09:11:42.000Z,5.973313782991221
2024-04-13T09:12:44.000Z,5.9830400782013875
2024-04-13T09:13:47.000Z,5.992766373411554
2024-04-13T09:14:49.000Z,6.012218963831886
2024-04-13T09:15:51.000Z,6.021945259042052
2024-04-13T09:16:54.000Z,6.012218963831886
2024-04-13T09:17:56.000Z,6.012218963831886
2024-04-13T09:18:58.000Z,5.895503421309892
2024-04-13T09:20:00.000Z,6.012218963831886
2024-04-13T09:21:03.000Z,6.021945259042052
2024-04-13T09:22:05.000Z,5.92468230694039
2024-04-13T09:23:07.000Z,5.914956011730224
2024-04-13T09:24:10.000Z,5.914956011730224
2024-04-13T09:25:12.000Z,5.817693059628562
2024-04-13T09:26:14.000Z,6.012218963831886
2024-04-13T09:27:16.000Z,6.00249266862172
2024-04-13T09:28:19.000Z,6.012218963831886
2024-04-13T09:29:21.000Z,6.021945259042052
2024-04-13T09:30:23.000Z,6.031671554252219
2024-04-13T09:31:26.000Z,6.00249266862172
2024-04-13T09:32:28.000Z,6.060850439882717
2024-04-13T09:33:30.000Z,6.00249266862172
2024-04-13T09:34:33.000Z,6.070576735092883
2024-04-13T09:35:35.000Z,6.00249266862172
2024-04-13T09:36:37.000Z,5.944134897360723
2024-04-13T09:37:40.000Z,6.060850439882717
2024-04-13T09:38:42.000Z,6.060850439882717